Taber, Canada
Current Conditions -  °F | °C
As of 9:00 AM on Wednesday 22 Oct 2014 (Local Time) from CYQL Reporting Station
Few Clouds Few Clouds  
Wind Chill: 36°   Ceiling: Unl
Heat Index: 43°   Visibility: 40mi
Dew Point: 30°   Wind: 13mph
Humidity: 61%   Direction: 240°WSW
Pressure: 29.83"   Gusts: NA
Location:  49.79°N, 112.14°W
Report Text: CYQL 221500Z 24011KT 40SM FEW270 06/M01 A2983 RMK CI1 CI TR SLP113
Loading
Personal Weather Stations






























Interactive Weather Map
Tropical Storm Tracking
New forecast layout! Learn more

10-Day Weather Forecast

Advertisements
Track Severe Weather on mobile